Time;durP1;ratioP1;P1;durP2;ratioP2;P2;SDS_P1;SDS_P2;PMS_P1;PMS_P2;Temp;Humidity;BMP_temperature;BMP_pressure;BME280_temperature;BME280_humidity;BME280_pressure;Samples;Min_cycle;Max_cycle;Signal;HPM_P1;HPM_P2
2023/08/26 00:00:31;;;;;;;22.27;14.27;;;;;;;21.77;86.79;99558.69;4188169;28;20237;-65
2023/08/26 00:02:58;;;;;;;22.23;13.20;;;;;;;21.60;88.12;99558.63;4178918;28;21576;-63
2023/08/26 00:05:26;;;;;;;22.37;14.70;;;;;;;21.66;87.43;99550.22;4168503;28;20237;-64
2023/08/26 00:07:52;;;;;;;26.00;14.83;;;;;;;21.59;87.86;99538.50;4182463;28;20576;-65
2023/08/26 00:10:20;;;;;;;18.53;12.57;;;;;;;21.59;87.92;99541.25;4186403;28;22621;-65
2023/08/26 00:12:47;;;;;;;19.40;13.00;;;;;;;21.58;88.25;99544.25;4191600;28;20237;-65
2023/08/26 00:15:13;;;;;;;15.63;12.07;;;;;;;21.59;88.29;99541.25;4188065;28;20229;-64
2023/08/26 00:17:40;;;;;;;21.50;14.40;;;;;;;21.57;88.41;99535.16;4177127;28;20307;-64
2023/08/26 00:20:08;;;;;;;19.73;13.73;;;;;;;21.59;88.34;99532.16;4192799;28;20241;-62
2023/08/26 00:22:38;;;;;;;26.33;15.77;;;;;;;21.55;88.98;99526.25;4169505;28;20247;-64
2023/08/26 00:25:06;;;;;;;21.67;13.23;;;;;;;21.56;88.63;99529.88;4189852;28;20296;-63
2023/08/26 00:27:32;;;;;;;24.07;14.00;;;;;;;21.74;87.93;99532.47;4172941;28;20241;-65
2023/08/26 00:29:59;;;;;;;21.50;15.03;;;;;;;21.67;88.65;99549.16;4187301;28;20306;-64
2023/08/26 00:32:30;;;;;;;26.60;15.90;;;;;;;21.65;88.91;99572.47;4182794;28;20627;-67
2023/08/26 00:34:56;;;;;;;23.07;15.10;;;;;;;21.57;89.34;99600.34;4209199;28;20337;-66
2023/08/26 00:37:23;;;;;;;23.60;16.13;;;;;;;21.35;91.32;99628.50;4176354;28;20248;-63
2023/08/26 00:39:49;;;;;;;24.90;16.53;;;;;;;21.12;94.32;99648.59;4189535;28;20236;-64
2023/08/26 00:42:16;;;;;;;26.50;16.47;;;;;;;20.78;97.11;99640.00;4184840;28;20267;-65
2023/08/26 00:44:43;;;;;;;25.30;13.90;;;;;;;20.65;96.91;99641.84;4188162;28;23068;-65
2023/08/26 00:47:09;;;;;;;21.57;11.83;;;;;;;20.46;97.86;99649.31;4182289;28;20237;-69
2023/08/26 00:49:36;;;;;;;23.70;10.40;;;;;;;20.22;99.15;99626.38;4178535;28;20230;-70
2023/08/26 00:52:04;;;;;;;12.37;5.90;;;;;;;20.01;99.03;99622.19;4188080;28;21598;-67
2023/08/26 00:54:35;;;;;;;15.07;5.83;;;;;;;19.89;99.90;99622.09;4184146;28;20229;-67
2023/08/26 00:57:05;;;;;;;15.33;5.40;;;;;;;19.74;100.00;99604.06;4173293;28;21867;-68
2023/08/26 00:59:32;;;;;;;11.30;5.07;;;;;;;19.62;100.00;99611.41;4189877;28;20411;-67
2023/08/26 01:01:59;;;;;;;15.03;4.87;;;;;;;19.64;100.00;99614.72;4178002;28;20237;-67
2023/08/26 01:04:27;;;;;;;9.47;5.07;;;;;;;19.63;100.00;99622.16;4193354;28;20232;-70
2023/08/26 01:06:54;;;;;;;10.00;3.43;;;;;;;19.48;99.42;99610.69;4175855;28;20229;-68
2023/08/26 01:09:20;;;;;;;6.33;3.27;;;;;;;19.39;100.00;99614.78;4188698;28;20232;-66
2023/08/26 01:12:00;;;;;;;8.10;3.00;;;;;;;19.31;100.00;99615.94;4204666;28;20247;-70
2023/08/26 01:14:34;;;;;;;12.57;3.83;;;;;;;19.26;100.00;99599.31;4183043;28;20635;-68
2023/08/26 01:17:03;;;;;;;5.50;3.47;;;;;;;19.21;100.00;99579.91;4168584;28;20236;-66
2023/08/26 01:19:40;;;;;;;7.40;4.17;;;;;;;19.18;100.00;99572.97;4186378;28;20316;-66
2023/08/26 01:22:08;;;;;;;6.00;4.07;;;;;;;19.21;100.00;99564.31;4184341;28;20248;-67
2023/08/26 01:24:35;;;;;;;8.00;4.60;;;;;;;19.22;100.00;99560.47;4177607;28;20570;-66
2023/08/26 01:27:02;;;;;;;9.77;5.73;;;;;;;19.26;100.00;99555.41;4175134;28;20237;-68
2023/08/26 01:29:29;;;;;;;10.23;5.13;;;;;;;19.24;100.00;99543.81;4184529;28;20234;-68
2023/08/26 01:32:16;;;;;;;8.93;4.60;;;;;;;19.25;100.00;99532.59;4173721;28;20281;-68
2023/08/26 01:34:48;;;;;;;7.97;4.50;;;;;;;19.33;100.00;99545.19;4191594;28;20490;-69
2023/08/26 01:37:18;;;;;;;10.77;4.50;;;;;;;19.45;100.00;99537.03;4190311;28;20256;-66
2023/08/26 01:39:46;;;;;;;14.13;4.87;;;;;;;19.46;100.00;99539.56;4187543;28;22461;-67
2023/08/26 01:42:16;;;;;;;15.00;5.20;;;;;;;19.44;100.00;99533.44;4189300;28;20312;-66
2023/08/26 01:44:43;;;;;;;11.20;5.17;;;;;;;19.36;100.00;99514.53;4177752;28;20257;-67
2023/08/26 01:47:10;;;;;;;17.10;6.13;;;;;;;19.36;100.00;99514.53;4178846;28;20576;-70
2023/08/26 01:49:36;;;;;;;17.73;6.10;;;;;;;19.39;100.00;99505.00;4183731;28;25027;-68
2023/08/26 01:52:03;;;;;;;17.30;5.67;;;;;;;19.48;100.00;99515.47;4177611;28;20257;-69
2023/08/26 01:54:30;;;;;;;13.10;5.77;;;;;;;19.45;100.00;99526.03;4178550;28;21956;-69
2023/08/26 01:56:56;;;;;;;9.57;5.60;;;;;;;19.48;100.00;99536.56;4173554;28;24005;-68
2023/08/26 01:59:23;;;;;;;10.63;5.63;;;;;;;19.66;100.00;99551.38;4182346;28;20244;-67
2023/08/26 02:01:49;;;;;;;10.13;5.37;;;;;;;19.49;100.00;99543.75;4183385;28;20241;-67
2023/08/26 02:04:17;;;;;;;11.13;4.83;;;;;;;19.42;100.00;99542.97;4172938;28;20369;-68
2023/08/26 02:06:43;;;;;;;8.97;5.67;;;;;;;19.37;100.00;99532.69;4180013;28;20241;-67
2023/08/26 02:09:10;;;;;;;7.87;5.33;;;;;;;19.22;100.00;99515.75;4178393;28;20242;-66
2023/08/26 02:11:36;;;;;;;11.17;5.67;;;;;;;19.18;100.00;99509.06;4183164;28;25545;-66
2023/08/26 02:14:03;;;;;;;11.17;5.40;;;;;;;19.22;100.00;99502.84;4183600;28;20233;-67
2023/08/26 02:16:30;;;;;;;11.03;5.40;;;;;;;19.26;100.00;99498.59;4175580;28;20245;-66
2023/08/26 02:18:56;;;;;;;7.00;5.50;;;;;;;19.27;100.00;99496.69;4181676;28;20571;-68
2023/08/26 02:21:23;;;;;;;13.17;6.40;;;;;;;19.21;100.00;99500.34;4191781;28;20242;-68
2023/08/26 02:23:50;;;;;;;10.53;6.20;;;;;;;19.23;100.00;99500.97;4190829;28;20420;-67
2023/08/26 02:26:16;;;;;;;11.60;6.60;;;;;;;19.21;100.00;99497.59;4182466;28;21167;-69
2023/08/26 02:28:43;;;;;;;12.20;6.30;;;;;;;19.17;100.00;99497.22;4191486;28;21119;-68
2023/08/26 02:31:10;;;;;;;8.83;5.80;;;;;;;19.20;100.00;99487.69;4176531;28;21335;-68
2023/08/26 02:33:36;;;;;;;10.13;6.20;;;;;;;19.25;100.00;99501.59;4186519;28;20234;-68
2023/08/26 02:36:03;;;;;;;10.17;6.57;;;;;;;19.27;100.00;99516.75;4177100;28;20237;-68
2023/08/26 02:38:31;;;;;;;9.03;5.73;;;;;;;19.28;100.00;99512.09;4191870;28;20289;-66
2023/08/26 02:40:58;;;;;;;11.23;6.03;;;;;;;19.28;100.00;99514.84;4189272;28;20233;-68
2023/08/26 02:43:24;;;;;;;9.67;5.93;;;;;;;19.29;100.00;99514.63;4184317;28;20248;-67
2023/08/26 02:45:53;;;;;;;17.53;10.10;;;;;;;19.23;100.00;99517.44;4183828;28;20237;-67
2023/08/26 02:48:20;;;;;;;13.50;7.60;;;;;;;19.25;100.00;99516.13;4184440;28;20403;-68
2023/08/26 02:50:47;;;;;;;13.20;7.53;;;;;;;19.28;100.00;99523.94;4189710;28;21476;-66
2023/08/26 02:53:13;;;;;;;13.57;7.47;;;;;;;19.25;100.00;99518.06;4186191;28;21702;-68
2023/08/26 02:55:40;;;;;;;12.83;7.10;;;;;;;19.29;100.00;99522.00;4177384;28;22025;-67
2023/08/26 02:58:06;;;;;;;12.47;6.60;;;;;;;19.22;100.00;99521.25;4186331;28;20237;-68
2023/08/26 03:00:33;;;;;;;11.53;6.80;;;;;;;19.20;100.00;99532.44;4193350;28;22269;-67
2023/08/26 03:02:59;;;;;;;14.60;7.20;;;;;;;19.21;100.00;99533.28;4183757;28;21109;-66
2023/08/26 03:05:26;;;;;;;11.13;6.67;;;;;;;19.22;100.00;99535.78;4178147;28;20509;-66
2023/08/26 03:07:53;;;;;;;10.83;6.57;;;;;;;19.16;100.00;99543.03;4190861;28;20233;-68
2023/08/26 03:10:20;;;;;;;10.07;6.70;;;;;;;19.18;100.00;99541.97;4204832;28;20342;-66
2023/08/26 03:12:46;;;;;;;14.33;7.07;;;;;;;19.21;100.00;99538.75;4186201;28;20234;-66
2023/08/26 03:15:13;;;;;;;11.60;8.03;;;;;;;19.13;100.00;99537.16;4177066;28;24058;-67
2023/08/26 03:17:40;;;;;;;12.73;7.70;;;;;;;19.14;100.00;99547.91;4187781;28;21071;-67
2023/08/26 03:20:06;;;;;;;12.30;7.80;;;;;;;19.13;100.00;99551.72;4178172;28;20245;-66
2023/08/26 03:22:33;;;;;;;15.13;7.70;;;;;;;19.16;100.00;99553.16;4191857;28;21585;-67
2023/08/26 03:25:00;;;;;;;13.43;8.67;;;;;;;19.07;100.00;99546.31;4181606;28;20246;-66
2023/08/26 03:27:27;;;;;;;12.60;8.37;;;;;;;19.20;100.00;99548.06;4182394;28;20229;-66
2023/08/26 03:29:53;;;;;;;14.73;8.73;;;;;;;19.15;100.00;99544.09;4186921;28;20230;-68
2023/08/26 03:32:20;;;;;;;15.70;8.97;;;;;;;19.13;100.00;99546.22;4183265;28;21759;-68
2023/08/26 03:34:47;;;;;;;17.83;8.83;;;;;;;19.26;100.00;99553.50;4176561;28;20234;-69
2023/08/26 03:37:13;;;;;;;24.57;11.77;;;;;;;19.24;100.00;99557.53;4189513;28;20299;-66
2023/08/26 03:39:40;;;;;;;13.53;8.17;;;;;;;19.28;100.00;99558.75;4186601;28;20241;-67
2023/08/26 03:42:06;;;;;;;15.17;8.83;;;;;;;19.30;100.00;99557.44;4181416;28;20239;-67
2023/08/26 03:44:33;;;;;;;22.07;9.57;;;;;;;19.26;100.00;99550.75;4183582;28;20326;-68
2023/08/26 03:47:00;;;;;;;20.13;9.40;;;;;;;19.28;100.00;99554.09;4182288;28;20237;-68
2023/08/26 03:49:27;;;;;;;13.47;8.27;;;;;;;19.29;100.00;99549.44;4173366;28;20308;-69
2023/08/26 03:51:53;;;;;;;18.53;9.00;;;;;;;19.32;100.00;99554.50;4204134;28;21693;-68
2023/08/26 03:54:20;;;;;;;18.10;10.07;;;;;;;19.38;100.00;99552.72;4186747;28;20558;-66
2023/08/26 03:56:47;;;;;;;15.97;10.17;;;;;;;19.32;100.00;99544.34;4191691;28;20245;-68
2023/08/26 03:59:13;;;;;;;20.13;10.80;;;;;;;19.36;100.00;99552.97;4200813;28;20301;-67
2023/08/26 04:01:40;;;;;;;19.90;10.67;;;;;;;19.47;100.00;99560.44;4196097;28;21599;-67
2023/08/26 04:04:07;;;;;;;17.47;10.80;;;;;;;19.50;100.00;99566.53;4184140;28;20383;-69
2023/08/26 04:06:33;;;;;;;16.87;10.43;;;;;;;19.58;100.00;99566.22;4197395;28;21159;-67
2023/08/26 04:09:02;;;;;;;23.03;12.60;;;;;;;19.58;100.00;99563.50;4181237;28;20725;-67
2023/08/26 04:11:29;;;;;;;17.97;12.03;;;;;;;19.72;100.00;99567.75;4205600;28;20264;-67
2023/08/26 04:13:56;;;;;;;19.63;11.83;;;;;;;19.71;100.00;99576.22;4190930;28;20230;-66
2023/08/26 04:16:22;;;;;;;19.03;12.10;;;;;;;19.70;100.00;99577.28;4189532;28;21553;-69
2023/08/26 04:18:49;;;;;;;21.13;12.57;;;;;;;19.72;100.00;99575.19;4187682;28;20359;-67
2023/08/26 04:21:16;;;;;;;21.33;13.43;;;;;;;19.72;100.00;99586.16;4186907;28;22102;-69
2023/08/26 04:23:43;;;;;;;23.90;12.63;;;;;;;19.72;100.00;99586.16;4198696;28;20249;-69
2023/08/26 04:26:10;;;;;;;23.77;13.33;;;;;;;19.80;100.00;99588.59;4195238;28;22370;-67
2023/08/26 04:28:36;;;;;;;19.40;13.43;;;;;;;19.94;100.00;99590.16;4190642;28;23066;-68
2023/08/26 04:31:03;;;;;;;21.40;13.50;;;;;;;20.01;100.00;99594.72;4186226;28;20249;-67
2023/08/26 04:33:30;;;;;;;19.50;14.33;;;;;;;19.89;100.00;99597.38;4198338;28;20249;-66
2023/08/26 04:35:57;;;;;;;24.33;14.97;;;;;;;19.93;100.00;99590.38;4186037;28;21166;-65
2023/08/26 04:38:23;;;;;;;22.03;14.00;;;;;;;20.12;100.00;99602.19;4204890;28;20281;-67
2023/08/26 04:40:51;;;;;;;20.30;14.73;;;;;;;20.16;100.00;99602.56;4194476;28;20233;-66
2023/08/26 04:43:18;;;;;;;19.33;13.30;;;;;;;20.22;100.00;99607.13;4179615;28;20239;-68
2023/08/26 04:45:45;;;;;;;22.17;13.50;;;;;;;20.26;100.00;99614.69;4175228;28;20296;-68
2023/08/26 04:48:11;;;;;;;20.37;13.00;;;;;;;20.40;100.00;99614.50;4192358;28;20303;-68
2023/08/26 04:50:43;;;;;;;19.33;13.10;;;;;;;20.39;100.00;99619.16;4187438;28;20228;-68
2023/08/26 04:53:09;;;;;;;18.63;13.00;;;;;;;20.51;100.00;99618.38;4177165;28;22231;-67
2023/08/26 04:55:36;;;;;;;17.67;12.80;;;;;;;20.56;100.00;99619.34;4205054;28;20232;-66
2023/08/26 04:58:03;;;;;;;19.70;12.70;;;;;;;20.64;98.92;99609.09;4183604;28;21642;-65
2023/08/26 05:00:29;;;;;;;17.20;11.73;;;;;;;20.63;99.07;99611.00;4182254;28;20240;-69
2023/08/26 05:02:56;;;;;;;16.00;12.50;;;;;;;20.67;99.08;99614.97;4167264;28;20233;-68
2023/08/26 05:05:23;;;;;;;17.87;11.60;;;;;;;20.72;98.96;99617.88;4186384;28;20304;-70
2023/08/26 05:07:49;;;;;;;20.77;12.33;;;;;;;20.70;98.51;99619.16;4180743;28;22353;-68
2023/08/26 05:10:16;;;;;;;19.00;11.80;;;;;;;20.80;97.93;99624.97;4182698;28;20237;-67
2023/08/26 05:12:43;;;;;;;16.57;11.23;;;;;;;20.82;97.73;99614.53;4174135;28;20859;-66
2023/08/26 05:15:09;;;;;;;18.67;10.63;;;;;;;20.96;96.87;99606.09;4189262;28;20233;-66
2023/08/26 05:17:36;;;;;;;14.97;10.47;;;;;;;20.90;97.32;99616.97;4186297;28;20414;-67
2023/08/26 05:20:04;;;;;;;18.27;10.83;;;;;;;20.90;97.83;99616.97;4186063;28;22059;-68
2023/08/26 05:22:30;;;;;;;17.37;10.97;;;;;;;21.01;97.09;99617.22;4179460;28;20245;-66
2023/08/26 05:24:57;;;;;;;19.17;10.53;;;;;;;20.95;97.31;99609.94;4184936;28;21974;-67
2023/08/26 05:27:23;;;;;;;15.67;10.10;;;;;;;20.99;96.64;99608.38;4196089;28;20285;-66
2023/08/26 05:29:51;;;;;;;16.97;10.20;;;;;;;21.10;96.02;99603.94;4181558;28;20343;-66
2023/08/26 05:32:18;;;;;;;13.03;10.20;;;;;;;21.15;95.36;99595.84;4178295;28;20320;-66
2023/08/26 05:34:44;;;;;;;13.53;8.70;;;;;;;21.21;95.15;99586.63;4187335;28;20237;-68
2023/08/26 05:37:11;;;;;;;19.23;10.10;;;;;;;21.28;95.08;99597.50;4196030;28;22100;-67
2023/08/26 05:39:38;;;;;;;18.03;9.80;;;;;;;21.38;94.23;99597.75;4170665;28;21080;-66
2023/08/26 05:42:04;;;;;;;19.60;10.53;;;;;;;21.47;93.80;99601.81;4172171;28;20229;-68
2023/08/26 05:44:31;;;;;;;17.50;10.40;;;;;;;21.44;93.97;99609.72;4206056;28;20240;-67
2023/08/26 05:46:58;;;;;;;19.10;11.00;;;;;;;21.41;94.34;99607.44;4181451;28;20237;-67
2023/08/26 05:49:24;;;;;;;22.20;10.73;;;;;;;21.46;94.28;99610.31;4183111;28;21639;-68
2023/08/26 05:51:52;;;;;;;14.50;9.67;;;;;;;21.64;92.97;99610.22;4175803;28;20727;-66
2023/08/26 05:54:18;;;;;;;15.07;10.07;;;;;;;21.77;92.17;99624.81;4195025;28;20233;-66
2023/08/26 05:56:45;;;;;;;21.27;11.60;;;;;;;21.55;94.75;99627.31;4183839;28;20265;-64
2023/08/26 05:59:12;;;;;;;17.67;11.40;;;;;;;21.57;95.02;99631.53;4185446;28;21648;-68
2023/08/26 06:01:39;;;;;;;18.63;11.83;;;;;;;21.45;96.17;99625.19;4176439;28;20319;-68
2023/08/26 06:04:06;;;;;;;17.60;12.30;;;;;;;21.43;96.13;99628.16;4188166;28;20233;-66
2023/08/26 06:06:33;;;;;;;17.00;11.73;;;;;;;21.44;95.41;99635.34;4176322;28;20335;-66
2023/08/26 06:09:00;;;;;;;20.20;12.37;;;;;;;21.57;93.94;99645.31;4188145;28;20237;-69
2023/08/26 06:11:26;;;;;;;20.97;13.30;;;;;;;21.66;93.18;99641.13;4191075;28;20248;-67
2023/08/26 06:13:53;;;;;;;17.90;11.80;;;;;;;21.80;93.00;99627.09;4178372;28;20233;-66
2023/08/26 06:16:20;;;;;;;19.23;11.77;;;;;;;21.84;93.14;99633.78;4180789;28;20241;-67
2023/08/26 06:18:47;;;;;;;19.43;12.03;;;;;;;21.96;91.16;99640.13;4191181;28;20244;-69
2023/08/26 06:21:15;;;;;;;18.33;11.93;;;;;;;22.10;90.84;99648.13;4180405;28;20277;-68
2023/08/26 06:23:41;;;;;;;16.43;12.00;;;;;;;22.04;92.36;99649.09;4180643;28;22001;-67
2023/08/26 06:26:08;;;;;;;19.97;12.47;;;;;;;22.11;91.43;99639.59;4169506;28;20471;-68
2023/08/26 06:28:35;;;;;;;21.10;12.43;;;;;;;22.17;91.81;99646.88;4183740;28;20237;-70
2023/08/26 06:31:02;;;;;;;16.90;12.20;;;;;;;22.07;92.52;99651.34;4176206;28;20237;-68
2023/08/26 06:33:28;;;;;;;17.97;12.43;;;;;;;22.27;92.34;99657.31;4183467;28;22106;-69
2023/08/26 06:35:55;;;;;;;18.73;12.33;;;;;;;22.16;92.11;99659.03;4181503;28;20226;-67
2023/08/26 06:38:22;;;;;;;17.53;11.67;;;;;;;22.33;90.41;99661.00;4168476;28;20292;-67
2023/08/26 06:40:55;;;;;;;17.93;11.90;;;;;;;22.25;90.92;99658.63;4177254;28;20237;-67
2023/08/26 06:43:23;;;;;;;19.33;12.60;;;;;;;22.51;89.96;99660.00;4185640;28;20226;-69
2023/08/26 06:45:50;;;;;;;17.33;11.53;;;;;;;23.52;85.06;99664.03;4189800;28;20302;-69
2023/08/26 06:48:17;;;;;;;17.53;10.70;;;;;;;24.79;78.29;99658.78;4182288;28;21279;-69
2023/08/26 06:50:47;;;;;;;16.03;9.63;;;;;;;25.76;73.96;99663.50;4188682;28;20234;-67
2023/08/26 06:53:20;;;;;;;16.47;9.13;;;;;;;26.62;70.31;99668.94;4182785;28;20241;-69
2023/08/26 06:55:48;;;;;;;16.07;8.63;;;;;;;26.72;68.58;99668.94;4194424;28;20276;-69
2023/08/26 06:58:15;;;;;;;13.00;8.90;;;;;;;27.73;66.36;99668.47;4184841;28;20306;-71
2023/08/26 07:00:42;;;;;;;18.30;8.67;;;;;;;27.71;64.97;99670.69;4178637;28;20241;-68
2023/08/26 07:03:09;;;;;;;15.95;8.73;;;;;;;28.89;60.23;99666.66;4182929;28;21184;-69
2023/08/26 07:05:42;;;;;;;12.07;8.05;;;;;;;29.70;57.22;99668.22;4184812;28;21425;-73
2023/08/26 07:08:08;;;;;;;14.32;8.18;;;;;;;29.29;58.66;99676.97;4186796;28;20237;-72
2023/08/26 07:10:35;;;;;;;14.60;7.38;;;;;;;30.68;55.55;99667.13;4171911;28;20234;-70
2023/08/26 07:13:02;;;;;;;11.75;6.88;;;;;;;31.99;50.81;99670.31;4179398;28;21126;-84
2023/08/26 07:15:28;;;;;;;14.00;7.10;;;;;;;31.76;51.28;99667.41;4198196;28;20307;-73
2023/08/26 07:17:55;;;;;;;11.43;7.95;;;;;;;30.47;54.23;99675.75;4190710;28;20245;-71
2023/08/26 07:20:23;;;;;;;14.02;7.25;;;;;;;31.85;51.54;99671.13;4198981;28;20237;-71
2023/08/26 07:22:50;;;;;;;14.05;8.35;;;;;;;31.95;49.23;99674.88;4197672;28;20237;-72
2023/08/26 07:25:17;;;;;;;15.85;8.25;;;;;;;31.21;52.08;99673.63;4190872;28;20237;-70
2023/08/26 07:27:45;;;;;;;14.27;7.63;;;;;;;32.95;48.22;99674.16;4195483;28;22124;-69
2023/08/26 07:30:13;;;;;;;12.32;6.68;;;;;;;33.76;44.50;99674.44;4191649;28;20237;-70
2023/08/26 07:32:41;;;;;;;18.08;7.85;;;;;;;33.53;45.48;99671.66;4192604;28;22569;-74
2023/08/26 07:35:09;;;;;;;9.32;6.10;;;;;;;34.87;41.81;99662.22;4164523;28;22024;-69
2023/08/26 07:37:36;;;;;;;11.73;8.38;;;;;;;33.06;45.99;99668.34;4198241;28;20241;-71
2023/08/26 07:40:07;;;;;;;9.90;6.15;;;;;;;36.22;39.85;99666.13;4203362;28;20334;-73
2023/08/26 07:42:34;;;;;;;13.82;7.25;;;;;;;38.18;35.89;99675.84;4190920;28;20238;-72
2023/08/26 07:45:02;;;;;;;9.40;6.60;;;;;;;39.18;34.10;99672.88;4196752;28;22148;-74
2023/08/26 07:47:29;;;;;;;9.70;5.90;;;;;;;40.27;31.47;99680.28;4206636;28;21265;-72
2023/08/26 07:49:59;;;;;;;10.80;6.90;;;;;;;38.95;33.96;99687.56;4198264;28;21350;-71
2023/08/26 07:52:29;;;;;;;11.70;7.55;;;;;;;36.58;38.39;99685.34;4185844;28;22226;-75
2023/08/26 07:54:56;;;;;;;14.40;6.18;;;;;;;38.96;34.47;99692.06;4198102;28;20237;-74
2023/08/26 07:57:22;;;;;;;13.45;7.25;;;;;;;37.49;36.29;99694.41;4209065;28;20238;-74
2023/08/26 07:59:49;;;;;;;13.95;5.40;;;;;;;37.75;35.43;99688.50;4192352;28;22821;-74
2023/08/26 08:02:17;;;;;;;10.20;5.03;;;;;;;39.64;32.23;99686.72;4206864;28;20244;-74
2023/08/26 08:04:44;;;;;;;10.00;6.05;;;;;;;38.09;34.84;99694.09;4218785;28;20238;-76
2023/08/26 08:07:11;;;;;;;10.43;6.03;;;;;;;36.56;36.71;99690.50;4236583;28;20241;-72
2023/08/26 08:09:38;;;;;;;10.95;6.30;;;;;;;36.00;37.46;99674.50;4217311;28;20234;-71
2023/08/26 08:12:05;;;;;;;8.00;5.65;;;;;;;35.02;39.87;99677.81;4235719;28;20239;-73
2023/08/26 08:14:32;;;;;;;11.27;5.55;;;;;;;33.53;42.24;99680.09;4228497;28;20236;-70
2023/08/26 08:16:59;;;;;;;8.95;4.93;;;;;;;33.24;43.10;99684.13;4214290;28;20234;-71
2023/08/26 08:19:27;;;;;;;12.32;5.72;;;;;;;32.75;44.73;99683.84;4227388;28;21559;-79
2023/08/26 08:21:53;;;;;;;11.77;6.03;;;;;;;32.52;44.48;99688.56;4177868;28;20278;-72
2023/08/26 08:24:20;;;;;;;10.38;5.18;;;;;;;31.71;46.27;99682.31;4195589;28;20230;-70
2023/08/26 08:26:47;;;;;;;10.02;5.88;;;;;;;31.71;47.22;99692.66;4195198;28;23219;-73
2023/08/26 08:29:13;;;;;;;7.28;5.20;;;;;;;31.96;46.69;99690.53;4160269;28;20329;-72
2023/08/26 08:31:40;;;;;;;15.18;5.90;;;;;;;32.00;46.38;99692.41;4182802;28;20236;-71
2023/08/26 08:34:07;;;;;;;8.70;5.10;;;;;;;31.37;46.47;99696.59;4206846;28;20290;-68
2023/08/26 08:36:34;;;;;;;10.50;5.18;;;;;;;30.27;48.92;99690.81;4200430;28;20239;-72
2023/08/26 08:39:01;;;;;;;11.27;4.68;;;;;;;30.40;49.87;99686.47;4191185;28;20233;-70
2023/08/26 08:41:29;;;;;;;11.27;5.05;;;;;;;30.88;48.95;99687.53;4193623;28;25420;-68
2023/08/26 08:44:00;;;;;;;9.85;4.55;;;;;;;31.38;45.92;99699.06;4230050;28;20224;-44
2023/08/26 08:46:27;;;;;;;7.43;4.45;;;;;;;31.20;46.68;99706.34;4194714;28;25534;-73
2023/08/26 08:48:54;;;;;;;11.05;4.60;;;;;;;30.70;48.82;99697.56;4188325;28;20252;-76
2023/08/26 08:51:24;;;;;;;9.65;5.22;;;;;;;29.51;52.17;99698.81;4191168;28;20616;-74
2023/08/26 08:53:52;;;;;;;11.30;4.90;;;;;;;29.00;53.20;99700.84;4180684;28;20718;-76
2023/08/26 08:56:21;;;;;;;12.95;5.38;;;;;;;29.17;53.36;99696.84;4193881;28;20225;-74
2023/08/26 08:58:51;;;;;;;6.72;4.70;;;;;;;29.99;51.59;99698.94;4187858;28;21809;-74
2023/08/26 09:01:19;;;;;;;9.65;4.88;;;;;;;30.06;50.23;99694.97;4180945;28;20237;-74
2023/08/26 09:03:47;;;;;;;7.93;4.72;;;;;;;30.34;49.21;99698.81;4201361;28;20556;-75
2023/08/26 09:06:13;;;;;;;9.20;5.33;;;;;;;29.17;53.59;99702.41;4183880;28;23499;-74
2023/08/26 09:08:41;;;;;;;9.35;4.40;;;;;;;28.75;54.67;99699.88;4175903;28;20305;-74
2023/08/26 09:11:08;;;;;;;9.87;5.03;;;;;;;28.51;54.30;99707.22;4193930;28;20770;-75
2023/08/26 09:13:34;;;;;;;8.00;4.50;;;;;;;29.02;52.43;99701.41;4193123;28;20237;-73
2023/08/26 09:16:01;;;;;;;8.90;4.50;;;;;;;29.52;51.08;99709.69;4184986;28;20299;-73
2023/08/26 09:18:28;;;;;;;8.88;4.15;;;;;;;29.80;50.20;99698.81;4192060;28;22897;-72
2023/08/26 09:20:54;;;;;;;10.32;4.75;;;;;;;29.68;50.50;99703.97;4193586;28;20279;-75
2023/08/26 09:23:21;;;;;;;9.75;3.92;;;;;;;28.75;53.29;99708.22;4202375;28;20316;-72
2023/08/26 09:25:53;;;;;;;5.30;3.80;;;;;;;29.33;52.12;99698.41;4195448;28;22179;-70
2023/08/26 09:28:20;;;;;;;10.55;4.25;;;;;;;29.10;53.00;99705.50;4177166;28;21888;-73
2023/08/26 09:31:03;;;;;;;7.18;3.95;;;;;;;29.77;49.81;99707.78;4173883;28;20225;-73
2023/08/26 09:33:30;;;;;;;6.45;3.83;;;;;;;29.44;51.90;99707.53;4187867;28;21224;-72
2023/08/26 09:35:58;;;;;;;10.02;4.40;;;;;;;28.66;53.91;99701.59;4176396;28;23349;-72
2023/08/26 09:38:31;;;;;;;9.45;3.75;;;;;;;29.14;51.78;99712.19;4173559;28;23088;-72
2023/08/26 09:41:00;;;;;;;8.90;3.95;;;;;;;29.07;52.37;99717.25;4183403;28;21319;-73
2023/08/26 09:43:26;;;;;;;8.30;3.40;;;;;;;29.02;52.05;99725.63;4208538;28;22016;-70
2023/08/26 09:45:56;;;;;;;4.82;2.97;;;;;;;28.92;52.94;99727.38;4191029;28;20311;-72
2023/08/26 09:48:24;;;;;;;5.80;3.45;;;;;;;28.94;52.03;99727.91;4183233;28;22368;-73
2023/08/26 09:50:52;;;;;;;5.82;3.10;;;;;;;29.04;51.17;99729.78;4172186;28;20245;-71
2023/08/26 09:53:32;;;;;;;10.52;3.45;;;;;;;28.78;53.84;99723.53;4194564;28;20237;-75
2023/08/26 09:56:02;;;;;;;6.88;4.03;;;;;;;28.77;53.99;99714.34;4183851;28;22169;-70
2023/08/26 09:58:28;;;;;;;4.73;2.97;;;;;;;28.45;52.20;99717.53;4187737;28;20452;-72
2023/08/26 10:00:56;;;;;;;5.65;3.20;;;;;;;28.39;53.35;99719.50;4189846;28;20257;-74
2023/08/26 10:03:24;;;;;;;12.85;3.53;;;;;;;28.30;54.37;99718.41;4194530;28;26135;-72
2023/08/26 10:05:54;;;;;;;7.15;2.95;;;;;;;28.69;49.58;99711.31;4200500;28;22625;-76
2023/08/26 10:08:27;;;;;;;6.63;3.10;;;;;;;29.01;49.95;99712.81;4169672;28;20241;-75
2023/08/26 10:10:54;;;;;;;5.63;3.20;;;;;;;28.88;51.24;99719.88;4184116;28;20759;-75
2023/08/26 10:13:28;;;;;;;5.20;2.70;;;;;;;28.86;51.01;99719.31;4176526;28;20237;-76
2023/08/26 10:15:57;;;;;;;5.07;2.17;;;;;;;28.53;49.26;99716.09;4180794;28;20302;-77
2023/08/26 10:18:34;;;;;;;6.73;2.90;;;;;;;28.53;49.84;99722.53;4195090;28;20261;-78
2023/08/26 10:21:02;;;;;;;6.15;2.83;;;;;;;28.94;50.65;99715.94;4190114;28;21777;-78
2023/08/26 10:23:29;;;;;;;3.83;2.50;;;;;;;28.80;50.06;99720.47;4198917;28;20677;-74
2023/08/26 10:25:56;;;;;;;3.13;2.33;;;;;;;28.85;49.33;99721.28;4177221;28;20244;-74
2023/08/26 10:28:24;;;;;;;7.32;2.75;;;;;;;28.62;50.11;99719.97;4165736;28;21710;-76
2023/08/26 10:30:54;;;;;;;5.53;2.63;;;;;;;28.28;51.08;99715.13;4169140;28;20282;-78
2023/08/26 10:33:20;;;;;;;5.63;2.85;;;;;;;28.22;51.35;99721.78;4168081;28;20285;-75
2023/08/26 10:36:12;;;;;;;6.53;3.33;;;;;;;28.31;51.16;99722.88;4184692;28;20229;-76
2023/08/26 10:38:39;;;;;;;5.88;3.28;;;;;;;28.34;51.22;99713.97;4184609;28;20244;-75
2023/08/26 10:41:11;;;;;;;9.77;3.77;;;;;;;28.06;53.45;99716.25;4177027;28;20371;-76
2023/08/26 10:43:51;;;;;;;5.25;3.35;;;;;;;27.73;54.47;99724.09;4184390;28;20311;-75
2023/08/26 10:46:18;;;;;;;5.33;3.67;;;;;;;27.75;53.89;99712.69;4168903;28;23331;-76
2023/08/26 10:48:55;;;;;;;6.83;3.40;;;;;;;28.04;54.30;99704.56;4181510;28;20337;-75
2023/08/26 10:51:21;;;;;;;6.45;3.20;;;;;;;28.12;54.25;99711.53;4186825;28;20233;-75
2023/08/26 10:53:48;;;;;;;3.95;2.75;;;;;;;27.81;53.21;99703.22;4196818;28;22649;-79
2023/08/26 10:56:20;;;;;;;6.47;3.05;;;;;;;27.41;54.55;99710.47;4179354;28;20596;-77
2023/08/26 10:58:48;;;;;;;5.45;2.88;;;;;;;27.41;54.28;99702.94;4183819;28;20250;-75
2023/08/26 11:01:16;;;;;;;7.88;2.95;;;;;;;27.38;55.18;99697.91;4190121;28;20237;-76
2023/08/26 11:03:45;;;;;;;5.87;2.90;;;;;;;27.35;54.11;99710.44;4197460;28;20471;-42
2023/08/26 11:06:23;;;;;;;9.48;3.13;;;;;;;27.14;55.51;99703.19;4166641;28;20510;-48
2023/08/26 11:08:53;;;;;;;5.47;2.90;;;;;;;27.13;57.04;99713.50;4175425;28;21791;-75
2023/08/26 11:11:20;;;;;;;5.47;2.57;;;;;;;27.17;56.43;99700.69;4192277;28;20243;-75
2023/08/26 11:13:47;;;;;;;6.88;3.05;;;;;;;27.39;56.07;99699.59;4193937;28;21587;-71
2023/08/26 11:16:15;;;;;;;5.53;2.60;;;;;;;27.79;55.37;99703.50;4211219;28;20319;-77
2023/08/26 11:18:44;;;;;;;6.17;2.87;;;;;;;28.07;53.65;99695.66;4185258;28;20245;-76
2023/08/26 11:21:12;;;;;;;5.30;2.40;;;;;;;28.73;52.22;99696.56;4197874;28;21387;-77
2023/08/26 11:23:39;;;;;;;7.67;2.60;;;;;;;28.92;50.67;99695.88;4194667;28;20240;-75